Depok
Home > Kaskuser Regional > INDONESIA > JABAR, DKI & BANTEN > Depok > ▓▓▒▒ Radar Cuaca JABODETABEK dan Sekitarnya™ ▒▒▓▓
Total Views: 4268 Share : Facebook ShareFacebook Twitter ShareTwitter Google+ ShareGoogle+
Page 6 of 21 |  < 1 2 3 4 5 6 7 8 9 10 11 >  Last ›

dianabazz - 01/04/2012 06:41 PM
#101

▓▓▒▒ Radar Cuaca JABODETABEK dan Sekitarnya™ ▒▒▓▓
dianabazz - 04/04/2012 12:47 PM
#102

▓▓▒▒ Radar Cuaca JABODETABEK dan Sekitarnya™ ▒▒▓▓
dianabazz - 04/04/2012 12:48 PM
#103

T A F O R



TAF WIII 032300Z 0400/0506 18005KT 4000 BR SCT020 BECMG 0400/0402 06005KT 6000 FEW020CB SCT020 PROB30 TEMPO 0406/0412 5000 TSRA FEW017CB BKN017 BECMG 0412/0414 5000 HZ SCT020 TEMPO 0418/0424 06005KT 4000 BR SCT020 BECMG 0500/0502 05008KT 6000 FEW020CB SCT020=



Bingung cara bacanya???bingungs
klik aja Cara membaca TAFOR
atau menggunakan decoder diSINI
tapi jangan lupa untuk membuang "TAF" di awal dan "=" di akhir
dianabazz - 04/04/2012 12:50 PM
#104

▓▓▒▒ Radar Cuaca JABODETABEK dan Sekitarnya™ ▒▒▓▓
dianabazz - 05/04/2012 08:19 AM
#105

T A F O R



TAF WIII 042300Z 0500/0606 20005KT 4000 BR FEW020 BECMG 0502/0504 05010KT 9999 SCT022 PROB30 TEMPO 0505/0509 3000 TSRA FEW020CB BECMG 0510/0512 24005KT 4000 BR FEW020=



Bingung cara bacanya???bingungs
klik aja Cara membaca TAFOR
atau menggunakan decoder diSINI
tapi jangan lupa untuk membuang "TAF" di awal dan "=" di akhir


dianabazz - 05/04/2012 08:20 AM
#106

▓▓▒▒ Radar Cuaca JABODETABEK dan Sekitarnya™ ▒▒▓▓
dianabazz - 06/04/2012 09:06 AM
#107

T A F O R



TAF WIII 052300Z 0600/0706 26006KT 8000 BECMG 0604/0606 32010KT PROB30 TEMPO 0608/0611 26005KT 6000 SHRA BKN020 BECMG 0612/0614 27005KT 7000 SCT020 BECMG 0620/0622 5000 BR=



Bingung cara bacanya???bingungs
klik aja Cara membaca TAFOR
atau menggunakan decoder diSINI
tapi jangan lupa untuk membuang "TAF" di awal dan "=" di akhir


dianabazz - 06/04/2012 09:07 AM
#108

▓▓▒▒ Radar Cuaca JABODETABEK dan Sekitarnya™ ▒▒▓▓
dianabazz - 07/04/2012 11:02 PM
#109

T A F O R



TAF WIII 071100Z 0712/0818 03006KT 9999 FEW023 BECMG 0714/0712 15005KT 4000 BR TEMPO 0715/0718 AND 0801/0804 21004KT TSRA FEW017CB SCT021 BECMG 0804/0806 06005KT 9000 FEW022=



Bingung cara bacanya???bingungs
klik aja Cara membaca TAFOR
atau menggunakan decoder diSINI
tapi jangan lupa untuk membuang "TAF" di awal dan "=" di akhir



dianabazz - 07/04/2012 11:04 PM
#110

▓▓▒▒ Radar Cuaca JABODETABEK dan Sekitarnya™ ▒▒▓▓
dianabazz - 09/04/2012 04:03 PM
#111

T A F O R



TAF WIII 090632Z 0906/1012 31010KT 9000 FEW020CB SCT020 PROB30 TEMPO 0906/0909 6000 RA FEW018CB BKN018 BECMG 0907/0909 12008KT 9000 FEW018CB BKN016 BECMG 0912/0914 20005KT 4000 BR SCT020 BECMG 1001/1003 30010KT 9000 SCT020 PROB30 TEMPO 1007/1010 5000 RA FEW018CB BKN018=



Bingung cara bacanya???bingungs
klik aja Cara membaca TAFOR
atau menggunakan decoder diSINI
tapi jangan lupa untuk membuang "TAF" di awal dan "=" di akhir
dianabazz - 09/04/2012 04:04 PM
#112

▓▓▒▒ Radar Cuaca JABODETABEK dan Sekitarnya™ ▒▒▓▓
dianabazz - 09/04/2012 04:05 PM
#113

▓▓▒▒ Radar Cuaca JABODETABEK dan Sekitarnya™ ▒▒▓▓
dianabazz - 10/04/2012 08:30 AM
#114

T A F O R



TAF WIII 092300Z 1000/1106 20005KT 4000 BR SCT020 BECMG 1001/1003 30010KT 9000 SCT020 PROB30 TEMPO 1007/1010 5000 RA FEW018CB BKN018 BECMG 1008/1010 12008KT 9000 FEW018CB BKN016 BECMG 1012/1014 20005KT 4000 BR SCT020 BECMG 1100/1102 30010KT 9000 SCT020=



Bingung cara bacanya???bingungs
klik aja Cara membaca TAFOR
atau menggunakan decoder diSINI
tapi jangan lupa untuk membuang "TAF" di awal dan "=" di akhir

dianabazz - 10/04/2012 08:33 AM
#115


▓▓▒▒ Radar Cuaca JABODETABEK dan Sekitarnya™ ▒▒▓▓
dianabazz - 11/04/2012 07:20 PM
#116

T A F O R



TAF WIII 111100Z 1112/1218 06005KT 7000 SCT020 BECMG 1120/1122 4000 BR BECMG 1200/1202 22005KT 5000 HZ BECMG 1204/1206 02010KT 9000 BECMG 1212/1214 07005KT 7000=



Bingung cara bacanya???bingungs
klik aja Cara membaca TAFOR
atau menggunakan decoder diSINI
tapi jangan lupa untuk membuang "TAF" di awal dan "=" di akhir



dianabazz - 11/04/2012 07:23 PM
#117

▓▓▒▒ Radar Cuaca JABODETABEK dan Sekitarnya™ ▒▒▓▓
dianabazz - 11/04/2012 07:26 PM
#118

▓▓▒▒ Radar Cuaca JABODETABEK dan Sekitarnya™ ▒▒▓▓
ChAnIaGo.LB - 12/04/2012 10:57 AM
#119

Pagi hari ini.... jakarta selatan cerah sun:
dianabazz - 14/04/2012 02:10 PM
#120

T A F O R



TAF WIII 140500Z 1406/1512 06010G20KT 9000 FEW022 BECMG 1406/1407 FEW021CB SCT022 BECMG 1408/1410 04005KT FEW022 BECMG 18004KT 4000 BR=



Bingung cara bacanya???bingungs
klik aja Cara membaca TAFOR
atau menggunakan decoder diSINI
tapi jangan lupa untuk membuang "TAF" di awal dan "=" di akhir
Page 6 of 21 |  < 1 2 3 4 5 6 7 8 9 10 11 >  Last ›
Home > Kaskuser Regional > INDONESIA > JABAR, DKI & BANTEN > Depok > ▓▓▒▒ Radar Cuaca JABODETABEK dan Sekitarnya™ ▒▒▓▓